KEVB

Details ICAO KEVB
Name NEW SMYRNA BEACH MUNI
Region United States
Timezone America/New_York (UTC-5.0)
Plans Departing 8
Arriving 10
Stats Elevation 10 ft / 3 m (AMSL)
Location 29.055531° -80.948772°
Runways 3
Magnetic Variation 6.721° W
Sunrise 2017-12-13 12:10:17 UTC / 2017-12-13 07:10:17 Local
Sunset 2017-12-13 22:28:45 UTC / 2017-12-13 17:28:45 Local
Advertisement - Login to hide

Runways

ID Width Length Bearing (true) Bearing (mag) Surface Threshold Offset Overrun Length
02 100 ft / 30 m 4,012 ft / 1,223 m 16.53° 23.25° Asphalt 785 ft / 239 m 0 ft / 0 m
06 75 ft / 23 m 4,998 ft / 1,523 m 61.48° 68.20° Asphalt 335 ft / 102 m 0 ft / 0 m
11 100 ft / 30 m 4,314 ft / 1,315 m 106.70° 113.42° Asphalt 0 ft / 0 m 650 ft / 198 m
20 100 ft / 30 m 4,012 ft / 1,223 m 196.53° 203.25° Asphalt 0 ft / 0 m 1,000 ft / 305 m
24 75 ft / 23 m 4,998 ft / 1,523 m 241.48° 248.20° Asphalt 300 ft / 91 m 0 ft / 0 m
29 100 ft / 30 m 4,314 ft / 1,315 m 286.71° 293.43° Asphalt 0 ft / 0 m 0 ft / 0 m

Map

Weather


0- 5 10 15 20 25 30 35+ Temperature / ° C

Clouds and Precipitation
Forecast for 2017-12-14 06:00 UTC. Updated an hour ago

Ground ~20,000 ft ~40,000 ft Winds

METAR

KEVB 140150Z 25003KT 10SM SKC 07/03 A3006

TAF

Not found

Frequencies

Recorded 124.62 MHz ATIS
Ground 121.32 MHz GND
Approach 125.35 MHz DAYTONA APP/DEP
Unicom 122.80 MHz UNICOM
Tower 119.67 MHz TWR
Warning: Do not use this data for real-world aviation or navigation. No guarantee of current accuracy is given.